createdAt,value
2023-12-17T00:02:10.421Z,9.09
2023-12-17T00:05:03.965Z,9.11
2023-12-17T00:07:32.172Z,9.09
2023-12-17T00:10:08.818Z,9.07
2023-12-17T00:12:37.044Z,9.11
2023-12-17T00:15:05.737Z,9.15
2023-12-17T00:17:34.564Z,9.08
2023-12-17T00:20:03.172Z,9.06
2023-12-17T00:22:31.903Z,9.00
2023-12-17T00:25:00.406Z,8.97
2023-12-17T00:27:31.376Z,9.04
2023-12-17T00:30:00.705Z,8.99
2023-12-17T00:32:42.493Z,9.06
2023-12-17T00:35:10.889Z,8.99
2023-12-17T00:37:39.325Z,9.01
2023-12-17T00:40:09.036Z,9.03
2023-12-17T00:42:38.679Z,9.00
2023-12-17T00:45:07.912Z,9.07
2023-12-17T00:47:36.477Z,9.06
2023-12-17T00:50:05.508Z,9.05
2023-12-17T00:52:34.726Z,9.09
2023-12-17T00:55:03.137Z,9.09
2023-12-17T00:57:31.516Z,9.10
2023-12-17T01:00:01.299Z,9.12
2023-12-17T01:02:29.592Z,9.02
2023-12-17T01:05:48.915Z,9.08
2023-12-17T01:08:17.247Z,9.11
2023-12-17T01:10:47.444Z,9.16
2023-12-17T01:13:15.760Z,9.14
2023-12-17T01:15:45.488Z,9.20
2023-12-17T01:19:30.613Z,9.27
2023-12-17T01:22:49.824Z,9.24
2023-12-17T01:25:18.187Z,9.26
2023-12-17T01:27:46.589Z,9.26
2023-12-17T01:30:15.225Z,9.33
2023-12-17T01:32:45.156Z,9.32
2023-12-17T01:35:13.521Z,9.35
2023-12-17T01:37:42.006Z,9.36
2023-12-17T01:40:11.216Z,9.38
2023-12-17T01:42:39.423Z,9.37
2023-12-17T01:45:08.579Z,9.34
2023-12-17T01:47:37.429Z,9.30
2023-12-17T01:50:08.962Z,9.27
2023-12-17T01:52:37.627Z,9.35
2023-12-17T01:55:07.029Z,9.36
2023-12-17T01:57:35.359Z,9.42
2023-12-17T02:00:04.688Z,9.37
2023-12-17T02:02:33.968Z,9.34
2023-12-17T02:05:03.806Z,9.43
2023-12-17T02:07:33.998Z,9.40
2023-12-17T02:14:08.716Z,9.43
2023-12-17T02:16:36.910Z,9.41
2023-12-17T02:19:05.320Z,9.35
2023-12-17T02:21:33.642Z,9.39
2023-12-17T02:24:04.418Z,9.38
2023-12-17T02:26:33.667Z,9.40
2023-12-17T02:29:01.842Z,9.42
2023-12-17T02:31:30.087Z,9.47
2023-12-17T02:33:58.424Z,9.43
2023-12-17T02:36:26.807Z,9.40
2023-12-17T02:38:56.092Z,9.41
2023-12-17T02:41:25.704Z,9.43
2023-12-17T02:43:53.933Z,9.39
2023-12-17T02:46:22.319Z,9.38
2023-12-17T02:48:50.610Z,9.40
2023-12-17T02:51:19.008Z,9.32
2023-12-17T02:53:47.356Z,9.36
2023-12-17T02:56:15.602Z,9.37
2023-12-17T02:58:45.179Z,9.39
2023-12-17T03:01:13.504Z,9.40
2023-12-17T03:03:41.875Z,9.37
2023-12-17T03:06:10.186Z,9.34
2023-12-17T03:08:48.865Z,9.27
2023-12-17T03:11:17.258Z,9.35
2023-12-17T03:13:46.782Z,9.34
2023-12-17T03:16:15.046Z,9.31
2023-12-17T03:18:43.337Z,9.34
2023-12-17T03:25:46.210Z,9.29
2023-12-17T03:28:14.480Z,9.28
2023-12-17T03:30:44.156Z,9.28
2023-12-17T03:33:16.399Z,9.27
2023-12-17T03:35:44.996Z,9.35
2023-12-17T03:38:13.261Z,9.43
2023-12-17T03:40:41.810Z,9.40
2023-12-17T03:43:10.275Z,9.43
2023-12-17T03:45:42.256Z,9.48
2023-12-17T03:48:14.599Z,9.46
2023-12-17T03:50:43.178Z,9.43
2023-12-17T03:53:12.123Z,9.47
2023-12-17T03:55:40.538Z,9.46
2023-12-17T03:58:08.776Z,9.49
2023-12-17T04:00:38.176Z,9.50
2023-12-17T04:03:06.553Z,9.49
2023-12-17T04:06:06.234Z,9.56
2023-12-17T04:11:51.159Z,9.51
2023-12-17T04:14:19.360Z,9.50
2023-12-17T04:16:47.596Z,9.56
2023-12-17T04:24:08.109Z,9.58
2023-12-17T04:27:31.665Z,9.54
2023-12-17T04:29:59.935Z,9.55
2023-12-17T04:37:11.981Z,9.60
2023-12-17T04:39:41.578Z,9.59
2023-12-17T04:42:13.932Z,9.67
2023-12-17T04:44:42.327Z,9.67
2023-12-17T04:50:56.501Z,9.63
2023-12-17T04:53:24.843Z,9.66
2023-12-17T04:55:54.450Z,9.61
2023-12-17T04:58:22.849Z,9.60
2023-12-17T05:02:10.370Z,9.69
2023-12-17T05:04:38.630Z,9.72
2023-12-17T05:07:06.832Z,9.71
2023-12-17T05:17:33.942Z,9.72
2023-12-17T05:20:02.314Z,9.68
2023-12-17T05:22:30.699Z,9.73
2023-12-17T05:32:34.597Z,9.70
2023-12-17T05:35:03.175Z,9.75
2023-12-17T05:37:31.273Z,9.75
2023-12-17T05:39:59.527Z,9.71
2023-12-17T05:42:27.877Z,9.78
2023-12-17T05:45:24.844Z,9.76
2023-12-17T05:52:54.201Z,9.69
2023-12-17T05:55:22.588Z,9.63
2023-12-17T05:57:51.421Z,9.65
2023-12-17T06:00:46.786Z,9.66
2023-12-17T06:03:15.173Z,9.71
2023-12-17T06:05:43.734Z,9.75
2023-12-17T06:12:24.410Z,9.76
2023-12-17T06:14:54.081Z,9.69
2023-12-17T06:17:22.307Z,9.71
2023-12-17T06:20:20.803Z,9.70
2023-12-17T06:22:50.574Z,9.71
2023-12-17T06:25:22.285Z,9.73
2023-12-17T06:27:51.112Z,9.71
2023-12-17T06:30:21.256Z,9.74
2023-12-17T06:32:49.774Z,9.72
2023-12-17T06:35:18.057Z,9.70
2023-12-17T06:37:46.240Z,9.72
2023-12-17T06:40:17.462Z,9.71
2023-12-17T06:42:46.119Z,9.66
2023-12-17T06:45:14.620Z,9.62
2023-12-17T06:47:44.597Z,9.67
2023-12-17T06:50:13.643Z,9.61
2023-12-17T06:57:34.009Z,9.73
2023-12-17T07:00:03.757Z,9.60
2023-12-17T07:02:33.471Z,9.57
2023-12-17T07:05:21.135Z,9.57
2023-12-17T07:09:03.415Z,9.65
2023-12-17T07:11:32.157Z,9.57
2023-12-17T07:14:00.310Z,9.57
2023-12-17T07:16:58.255Z,9.60
2023-12-17T07:19:28.075Z,9.64
2023-12-17T07:21:57.802Z,9.67
2023-12-17T07:24:27.508Z,9.68
2023-12-17T07:27:20.867Z,9.66
2023-12-17T07:29:49.622Z,9.66
2023-12-17T07:32:17.868Z,9.64
2023-12-17T07:34:46.837Z,9.68
2023-12-17T07:37:16.449Z,9.67
2023-12-17T07:39:44.712Z,9.66
2023-12-17T07:42:12.874Z,9.75
2023-12-17T07:44:42.188Z,9.76
2023-12-17T07:47:12.393Z,9.70
2023-12-17T07:49:40.755Z,9.74
2023-12-17T07:53:23.272Z,9.75
2023-12-17T07:55:59.285Z,9.78
2023-12-17T07:58:27.615Z,9.77
2023-12-17T08:00:55.963Z,9.76
2023-12-17T08:03:26.633Z,9.76
2023-12-17T08:09:08.259Z,9.76
2023-12-17T08:11:42.050Z,9.78
2023-12-17T08:15:02.155Z,9.76
2023-12-17T08:17:31.750Z,9.72
2023-12-17T08:20:00.033Z,9.74
2023-12-17T08:22:28.294Z,9.74
2023-12-17T08:24:56.497Z,9.67
2023-12-17T08:27:26.393Z,9.70
2023-12-17T08:29:54.771Z,9.73
2023-12-17T08:32:24.638Z,9.70
2023-12-17T08:36:12.343Z,9.81
2023-12-17T08:38:40.986Z,9.82
2023-12-17T08:41:09.211Z,9.84
2023-12-17T08:43:38.891Z,9.86
2023-12-17T08:46:07.736Z,9.91
2023-12-17T08:49:02.330Z,9.84
2023-12-17T08:51:31.000Z,9.84
2023-12-17T08:53:59.304Z,9.90
2023-12-17T08:56:27.555Z,9.91
2023-12-17T08:58:57.274Z,9.93
2023-12-17T09:01:25.539Z,10.00
2023-12-17T09:03:56.774Z,9.88
2023-12-17T09:06:25.477Z,9.93
2023-12-17T09:08:53.863Z,9.93
2023-12-17T09:11:22.379Z,9.95
2023-12-17T09:13:52.351Z,9.98
2023-12-17T09:16:22.451Z,9.96
2023-12-17T09:18:51.864Z,10.00
2023-12-17T09:21:20.515Z,10.00
2023-12-17T09:23:49.361Z,9.98
2023-12-17T09:26:17.711Z,9.95
2023-12-17T09:28:47.130Z,9.98
2023-12-17T09:31:15.683Z,10.05
2023-12-17T09:33:46.732Z,10.03
2023-12-17T09:36:15.311Z,10.07
2023-12-17T09:38:44.058Z,10.01
2023-12-17T09:41:12.424Z,10.04
2023-12-17T09:43:40.657Z,10.00
2023-12-17T09:46:12.157Z,10.04
2023-12-17T09:48:42.600Z,10.07
2023-12-17T09:51:15.017Z,10.08
2023-12-17T09:53:43.443Z,10.08
2023-12-17T09:56:13.329Z,10.12
2023-12-17T09:59:31.424Z,10.12
2023-12-17T10:01:59.830Z,10.10
2023-12-17T10:04:28.941Z,10.15
2023-12-17T10:07:12.829Z,10.14
2023-12-17T10:09:43.504Z,10.18
2023-12-17T10:12:11.889Z,10.16
2023-12-17T10:14:42.190Z,10.12
2023-12-17T10:17:39.269Z,10.20
2023-12-17T10:20:08.968Z,10.18
2023-12-17T10:22:37.498Z,10.22
2023-12-17T10:25:10.956Z,10.17
2023-12-17T10:27:39.669Z,10.16
2023-12-17T10:30:10.609Z,10.19
2023-12-17T10:32:44.766Z,10.24
2023-12-17T10:35:13.728Z,10.28
2023-12-17T10:37:42.925Z,10.27
2023-12-17T10:40:13.703Z,10.31
2023-12-17T10:42:44.422Z,10.25
2023-12-17T10:45:13.607Z,10.26
2023-12-17T10:47:42.433Z,10.28
2023-12-17T10:50:11.464Z,10.35
2023-12-17T10:52:40.986Z,10.34
2023-12-17T10:55:09.635Z,10.30
2023-12-17T10:57:41.321Z,10.36
2023-12-17T11:00:10.947Z,10.42
2023-12-17T11:02:39.817Z,10.40
2023-12-17T11:05:08.702Z,10.44
2023-12-17T11:07:38.726Z,10.48
2023-12-17T11:10:09.304Z,10.51
2023-12-17T11:12:37.554Z,10.54
2023-12-17T11:15:09.043Z,10.53
2023-12-17T11:17:43.030Z,10.62
2023-12-17T11:20:13.794Z,10.63
2023-12-17T11:22:42.018Z,10.61
2023-12-17T11:25:12.074Z,10.62
2023-12-17T11:27:41.393Z,10.63
2023-12-17T11:30:31.071Z,10.60
2023-12-17T11:33:00.889Z,10.59
2023-12-17T11:35:30.307Z,10.58
2023-12-17T11:37:59.027Z,10.62
2023-12-17T11:40:29.009Z,10.57
2023-12-17T11:43:00.467Z,10.52
2023-12-17T11:45:45.213Z,10.54
2023-12-17T11:48:17.347Z,10.53
2023-12-17T11:50:48.281Z,10.54
2023-12-17T11:53:17.169Z,10.50
2023-12-17T11:55:48.466Z,10.51
2023-12-17T11:58:21.351Z,10.52
2023-12-17T12:01:09.752Z,10.50
2023-12-17T12:03:39.631Z,10.50
2023-12-17T12:06:10.905Z,10.52
2023-12-17T12:08:41.092Z,10.52
2023-12-17T12:11:11.356Z,10.53
2023-12-17T12:13:42.558Z,10.52
2023-12-17T12:16:14.509Z,10.54
2023-12-17T12:18:43.387Z,10.61
2023-12-17T12:21:19.872Z,10.60
2023-12-17T12:23:53.943Z,10.57
2023-12-17T12:26:22.692Z,10.54
2023-12-17T12:28:58.257Z,10.40
2023-12-17T12:31:28.433Z,10.42
2023-12-17T12:33:59.592Z,10.45
2023-12-17T12:36:28.320Z,10.43
2023-12-17T12:39:17.363Z,10.33
2023-12-17T12:41:47.224Z,10.42
2023-12-17T12:44:16.477Z,10.41
2023-12-17T12:46:49.312Z,10.47
2023-12-17T12:49:19.477Z,10.45
2023-12-17T12:51:48.986Z,10.45
2023-12-17T12:54:17.681Z,10.43
2023-12-17T12:56:46.113Z,10.33
2023-12-17T12:59:22.914Z,10.35
2023-12-17T13:01:56.629Z,10.39
2023-12-17T13:04:25.091Z,10.39
2023-12-17T13:06:53.367Z,10.39
2023-12-17T13:09:22.345Z,10.36
2023-12-17T13:11:53.829Z,10.30
2023-12-17T13:14:22.155Z,10.34
2023-12-17T13:16:52.508Z,10.33
2023-12-17T13:19:24.416Z,10.28
2023-12-17T13:21:53.330Z,10.26
2023-12-17T13:24:24.359Z,10.21
2023-12-17T13:26:52.963Z,10.28
2023-12-17T13:29:21.449Z,10.28
2023-12-17T13:31:49.762Z,10.26
2023-12-17T13:34:20.929Z,10.22
2023-12-17T13:36:50.923Z,10.22
2023-12-17T13:39:19.275Z,10.22
2023-12-17T13:41:52.629Z,10.26
2023-12-17T13:44:27.835Z,10.23
2023-12-17T13:46:56.339Z,10.28
2023-12-17T13:49:25.074Z,10.21
2023-12-17T13:51:54.794Z,10.21
2023-12-17T13:54:23.886Z,10.27
2023-12-17T13:56:52.343Z,10.20
2023-12-17T13:59:20.712Z,10.18
2023-12-17T14:01:49.725Z,10.15
2023-12-17T14:04:18.218Z,10.18
2023-12-17T14:07:23.985Z,10.17
2023-12-17T14:09:56.135Z,10.13
2023-12-17T14:12:24.735Z,10.09
2023-12-17T14:14:53.112Z,10.06
2023-12-17T14:17:22.147Z,10.11
2023-12-17T14:19:50.669Z,10.06
2023-12-17T14:22:20.035Z,10.09
2023-12-17T14:24:49.491Z,10.05
2023-12-17T14:27:19.489Z,10.00
2023-12-17T14:29:48.068Z,10.01
2023-12-17T14:32:16.682Z,9.99
2023-12-17T14:34:45.232Z,9.95
2023-12-17T14:37:13.966Z,9.91
2023-12-17T14:39:42.443Z,9.94
2023-12-17T14:42:10.756Z,9.84
2023-12-17T14:44:40.505Z,9.90
2023-12-17T14:47:09.041Z,9.82
2023-12-17T14:49:37.610Z,9.88
2023-12-17T14:52:06.780Z,9.86
2023-12-17T14:54:35.570Z,9.82
2023-12-17T14:57:04.272Z,9.84
2023-12-17T14:59:37.987Z,9.82
2023-12-17T15:02:08.147Z,9.81
2023-12-17T15:04:37.041Z,9.82
2023-12-17T15:07:05.789Z,9.84
2023-12-17T15:09:34.194Z,9.79
2023-12-17T15:12:03.342Z,9.77
2023-12-17T15:14:31.686Z,9.88
2023-12-17T15:17:00.094Z,9.79
2023-12-17T15:19:29.772Z,9.81
2023-12-17T15:21:58.130Z,9.78
2023-12-17T15:24:26.487Z,9.76
2023-12-17T15:26:55.105Z,9.76
2023-12-17T15:29:24.047Z,9.74
2023-12-17T15:31:52.326Z,9.68
2023-12-17T15:34:20.593Z,9.57
2023-12-17T15:36:50.512Z,9.58
2023-12-17T15:39:18.979Z,9.64
2023-12-17T15:41:47.223Z,9.66
2023-12-17T15:44:19.745Z,9.65
2023-12-17T15:46:48.021Z,9.62
2023-12-17T15:49:17.350Z,9.69
2023-12-17T15:51:45.991Z,9.61
2023-12-17T15:54:15.748Z,9.58
2023-12-17T15:56:44.107Z,9.57
2023-12-17T15:59:13.877Z,9.54
2023-12-17T16:01:42.163Z,9.47
2023-12-17T16:04:11.011Z,9.44
2023-12-17T16:06:43.426Z,9.45
2023-12-17T16:09:11.857Z,9.45
2023-12-17T16:17:01.847Z,9.44
2023-12-17T16:19:30.271Z,9.44
2023-12-17T16:21:59.700Z,9.41
2023-12-17T16:24:28.137Z,9.32
2023-12-17T16:26:56.782Z,9.36
2023-12-17T16:29:25.342Z,9.41
2023-12-17T16:31:53.645Z,9.29
2023-12-17T16:34:23.310Z,9.27
2023-12-17T16:36:51.758Z,9.34
2023-12-17T16:39:20.938Z,9.31
2023-12-17T16:41:49.340Z,9.25
2023-12-17T16:44:17.711Z,9.28
2023-12-17T16:46:45.981Z,9.25
2023-12-17T16:49:14.327Z,9.18
2023-12-17T16:51:44.061Z,9.21
2023-12-17T16:54:12.406Z,9.15
2023-12-17T16:56:41.420Z,9.13
2023-12-17T16:59:09.751Z,9.11
2023-12-17T17:01:38.219Z,9.24
2023-12-17T17:04:06.837Z,9.15
2023-12-17T17:06:38.648Z,9.13
2023-12-17T17:09:10.664Z,9.13
2023-12-17T17:11:38.912Z,9.27
2023-12-17T17:14:07.769Z,9.30
2023-12-17T17:16:36.263Z,9.36
2023-12-17T17:19:04.816Z,9.42
2023-12-17T17:21:34.491Z,9.38
2023-12-17T17:24:02.907Z,9.36
2023-12-17T17:26:33.262Z,9.31
2023-12-17T17:29:01.921Z,9.35
2023-12-17T17:31:30.432Z,9.36
2023-12-17T17:33:58.977Z,9.31
2023-12-17T17:36:27.430Z,9.37
2023-12-17T17:38:56.766Z,9.44
2023-12-17T17:41:24.992Z,9.41
2023-12-17T17:43:55.452Z,9.41
2023-12-17T17:46:23.826Z,9.40
2023-12-17T17:48:52.399Z,9.42
2023-12-17T17:51:20.876Z,9.49
2023-12-17T17:53:51.190Z,9.53
2023-12-17T17:56:19.967Z,9.51
2023-12-17T17:58:48.269Z,9.52
2023-12-17T18:01:44.102Z,9.52
2023-12-17T18:04:12.501Z,9.60
2023-12-17T18:06:49.205Z,9.60
2023-12-17T18:09:17.892Z,9.56
2023-12-17T18:11:46.450Z,9.64
2023-12-17T18:14:14.718Z,9.59
2023-12-17T18:16:44.506Z,9.66
2023-12-17T18:19:12.859Z,9.57
2023-12-17T18:21:49.875Z,9.63
2023-12-17T18:24:18.215Z,9.65
2023-12-17T18:26:47.102Z,9.61
2023-12-17T18:29:15.458Z,9.72
2023-12-17T18:31:45.347Z,9.67
2023-12-17T18:34:14.353Z,9.71
2023-12-17T18:36:47.147Z,9.73
2023-12-17T18:39:15.324Z,9.77
2023-12-17T18:41:44.366Z,9.74
2023-12-17T18:44:12.673Z,9.71
2023-12-17T18:46:41.177Z,9.72
2023-12-17T18:49:11.970Z,9.76
2023-12-17T18:51:41.208Z,9.78
2023-12-17T18:54:09.598Z,9.77
2023-12-17T18:56:38.662Z,9.73
2023-12-17T18:59:07.017Z,9.72
2023-12-17T19:01:35.704Z,9.70
2023-12-17T19:04:07.681Z,9.79
2023-12-17T19:06:44.700Z,9.76
2023-12-17T19:09:12.958Z,9.75
2023-12-17T19:11:43.890Z,9.72
2023-12-17T19:14:14.703Z,9.78
2023-12-17T19:16:43.400Z,9.71
2023-12-17T19:19:13.578Z,9.71
2023-12-17T19:21:44.820Z,9.71
2023-12-17T19:24:18.803Z,9.75
2023-12-17T19:26:47.332Z,9.71
2023-12-17T19:29:15.769Z,9.64
2023-12-17T19:31:45.320Z,9.65
2023-12-17T19:34:13.780Z,9.65
2023-12-17T19:36:41.950Z,9.68
2023-12-17T19:39:11.828Z,9.72
2023-12-17T19:41:40.092Z,9.67
2023-12-17T19:44:08.411Z,9.70
2023-12-17T19:46:37.180Z,9.68
2023-12-17T19:49:08.262Z,9.71
2023-12-17T19:51:37.689Z,9.66
2023-12-17T19:54:37.056Z,9.66
2023-12-17T19:57:06.590Z,9.64
2023-12-17T19:59:36.184Z,9.70
2023-12-17T20:02:29.288Z,9.70
2023-12-17T20:04:57.605Z,9.69
2023-12-17T20:07:25.899Z,9.68
2023-12-17T20:09:55.676Z,9.69
2023-12-17T20:12:23.969Z,9.60
2023-12-17T20:14:52.373Z,9.64
2023-12-17T20:17:21.865Z,9.56
2023-12-17T20:19:50.172Z,9.62
2023-12-17T20:22:19.848Z,9.67
2023-12-17T20:24:48.051Z,9.62
2023-12-17T20:27:18.081Z,9.69
2023-12-17T20:29:46.494Z,9.67
2023-12-17T20:32:14.856Z,9.70
2023-12-17T20:34:43.170Z,9.60
2023-12-17T20:37:11.378Z,9.65
2023-12-17T20:40:54.763Z,9.70
2023-12-17T20:43:24.475Z,9.68
2023-12-17T20:45:52.740Z,9.69
2023-12-17T20:48:21.421Z,9.68
2023-12-17T20:50:49.693Z,9.65
2023-12-17T20:53:18.238Z,9.70
2023-12-17T20:55:46.529Z,9.74
2023-12-17T20:58:14.858Z,9.69
2023-12-17T21:00:44.738Z,9.70
2023-12-17T21:03:13.118Z,9.68
2023-12-17T21:05:41.485Z,9.66
2023-12-17T21:08:10.063Z,9.66
2023-12-17T21:10:38.237Z,9.68
2023-12-17T21:13:06.690Z,9.67
2023-12-17T21:15:35.380Z,9.65
2023-12-17T21:18:05.923Z,9.65
2023-12-17T21:20:34.497Z,9.73
2023-12-17T21:23:03.239Z,9.71
2023-12-17T21:25:31.575Z,9.64
2023-12-17T21:27:59.760Z,9.61
2023-12-17T21:30:28.041Z,9.65
2023-12-17T21:32:56.334Z,9.58
2023-12-17T21:35:25.948Z,9.58
2023-12-17T21:37:54.109Z,9.59
2023-12-17T21:40:22.373Z,9.67
2023-12-17T21:42:50.563Z,9.63
2023-12-17T21:45:18.788Z,9.57
2023-12-17T21:47:47.324Z,9.54
2023-12-17T21:50:15.726Z,9.57
2023-12-17T21:52:45.688Z,9.55
2023-12-17T21:55:14.907Z,9.55
2023-12-17T21:57:44.060Z,9.54
2023-12-17T22:00:17.233Z,9.54
2023-12-17T22:02:46.063Z,9.56
2023-12-17T22:05:14.602Z,9.54
2023-12-17T22:07:44.598Z,9.56
2023-12-17T22:10:16.613Z,9.52
2023-12-17T22:12:45.089Z,9.54
2023-12-17T22:15:13.488Z,9.55
2023-12-17T22:17:42.959Z,9.57
2023-12-17T22:20:12.053Z,9.55
2023-12-17T22:22:40.449Z,9.55
2023-12-17T22:25:09.575Z,9.53
2023-12-17T22:27:39.562Z,9.49
2023-12-17T22:30:09.326Z,9.43
2023-12-17T22:32:37.881Z,9.43
2023-12-17T22:35:06.889Z,9.41
2023-12-17T22:37:35.850Z,9.47
2023-12-17T22:40:04.380Z,9.43
2023-12-17T22:42:32.878Z,9.42
2023-12-17T22:45:02.522Z,9.48
2023-12-17T22:47:30.997Z,9.51
2023-12-17T22:49:59.306Z,9.55
2023-12-17T22:52:28.307Z,9.54
2023-12-17T22:54:56.490Z,9.55
2023-12-17T22:57:25.174Z,9.49
2023-12-17T22:59:53.563Z,9.50
2023-12-17T23:02:23.252Z,9.44
2023-12-17T23:04:51.617Z,9.48
2023-12-17T23:07:19.914Z,9.45
2023-12-17T23:09:48.202Z,9.50
2023-12-17T23:12:16.495Z,9.53
2023-12-17T23:14:44.877Z,9.50
2023-12-17T23:17:13.016Z,9.48
2023-12-17T23:19:42.885Z,9.51
2023-12-17T23:22:11.183Z,9.49
2023-12-17T23:24:39.818Z,9.49
2023-12-17T23:27:08.496Z,9.43
2023-12-17T23:29:36.693Z,9.51
2023-12-17T23:32:05.374Z,9.41
2023-12-17T23:34:33.673Z,9.43
2023-12-17T23:37:03.665Z,9.38
2023-12-17T23:39:31.930Z,9.49
2023-12-17T23:42:00.194Z,9.40
2023-12-17T23:44:28.680Z,9.42
2023-12-17T23:46:56.914Z,9.44
2023-12-17T23:49:25.544Z,9.44
2023-12-17T23:51:53.814Z,9.46
2023-12-17T23:54:23.630Z,9.48
2023-12-17T23:56:51.813Z,9.48
2023-12-17T23:59:19.950Z,9.49
